sensor_id;sensor_type;location;lat;lon;timestamp;pressure;altitude;pressure_sealevel;temperature;humidity
43741;BME280;29352;48.708;9.290;2022-12-07T00:01:40;97889.09;;;-2.75;83.75
43741;BME280;29352;48.708;9.290;2022-12-07T00:04:10;97890.97;;;-3.39;85.83
43741;BME280;29352;48.708;9.290;2022-12-07T00:06:43;97897.66;;;-3.46;86.00
43741;BME280;29352;48.708;9.290;2022-12-07T00:09:13;97885.16;;;-3.00;85.00
43741;BME280;29352;48.708;9.290;2022-12-07T00:11:40;97884.56;;;-3.04;84.35
43741;BME280;29352;48.708;9.290;2022-12-07T00:14:11;97891.50;;;-2.93;84.10
43741;BME280;29352;48.708;9.290;2022-12-07T00:16:38;97881.94;;;-2.83;83.84
43741;BME280;29352;48.708;9.290;2022-12-07T00:19:04;97888.22;;;-2.86;83.88
43741;BME280;29352;48.708;9.290;2022-12-07T00:21:33;97878.06;;;-3.40;85.58
43741;BME280;29352;48.708;9.290;2022-12-07T00:24:00;97889.38;;;-2.78;84.10
43741;BME280;29352;48.708;9.290;2022-12-07T00:26:32;97884.66;;;-2.85;83.07
43741;BME280;29352;48.708;9.290;2022-12-07T00:29:05;97878.88;;;-3.40;85.70
43741;BME280;29352;48.708;9.290;2022-12-07T00:31:35;97883.00;;;-3.79;86.93
43741;BME280;29352;48.708;9.290;2022-12-07T00:34:05;97883.72;;;-3.56;85.76
43741;BME280;29352;48.708;9.290;2022-12-07T00:36:37;97888.09;;;-3.77;86.55
43741;BME280;29352;48.708;9.290;2022-12-07T00:39:03;97884.06;;;-3.82;86.53
43741;BME280;29352;48.708;9.290;2022-12-07T00:41:29;97882.50;;;-3.31;85.13
43741;BME280;29352;48.708;9.290;2022-12-07T00:43:56;97878.66;;;-3.06;83.28
43741;BME280;29352;48.708;9.290;2022-12-07T00:46:23;97878.47;;;-3.56;85.04
43741;BME280;29352;48.708;9.290;2022-12-07T00:48:50;97875.34;;;-3.08;84.14
43741;BME280;29352;48.708;9.290;2022-12-07T00:51:19;97879.25;;;-3.23;84.12
43741;BME280;29352;48.708;9.290;2022-12-07T00:53:47;97877.69;;;-3.05;83.48
43741;BME280;29352;48.708;9.290;2022-12-07T00:56:15;97875.09;;;-3.26;83.83
43741;BME280;29352;48.708;9.290;2022-12-07T00:58:43;97876.81;;;-3.15;83.83
43741;BME280;29352;48.708;9.290;2022-12-07T01:01:10;97878.78;;;-3.59;86.59
43741;BME280;29352;48.708;9.290;2022-12-07T01:03:37;97877.78;;;-3.79;86.62
43741;BME280;29352;48.708;9.290;2022-12-07T01:06:03;97882.22;;;-3.70;86.66
43741;BME280;29352;48.708;9.290;2022-12-07T01:08:29;97878.88;;;-3.82;87.69
43741;BME280;29352;48.708;9.290;2022-12-07T01:11:00;97879.06;;;-3.73;86.96
43741;BME280;29352;48.708;9.290;2022-12-07T01:13:28;97875.88;;;-3.77;87.93
43741;BME280;29352;48.708;9.290;2022-12-07T01:16:00;97871.22;;;-3.73;87.42
43741;BME280;29352;48.708;9.290;2022-12-07T01:18:29;97876.97;;;-3.79;87.49
43741;BME280;29352;48.708;9.290;2022-12-07T01:21:21;97883.63;;;-3.87;87.28
43741;BME280;29352;48.708;9.290;2022-12-07T01:23:48;97884.84;;;-3.70;87.06
43741;BME280;29352;48.708;9.290;2022-12-07T01:26:18;97885.47;;;-3.77;85.74
43741;BME280;29352;48.708;9.290;2022-12-07T01:28:46;97884.25;;;-3.94;87.29
43741;BME280;29352;48.708;9.290;2022-12-07T01:31:15;97885.03;;;-3.83;86.96
43741;BME280;29352;48.708;9.290;2022-12-07T01:33:48;97880.13;;;-3.97;86.91
43741;BME280;29352;48.708;9.290;2022-12-07T01:36:25;97891.50;;;-3.77;86.04
43741;BME280;29352;48.708;9.290;2022-12-07T01:39:02;97895.06;;;-4.10;87.12
43741;BME280;29352;48.708;9.290;2022-12-07T01:41:35;97901.91;;;-3.87;86.11
43741;BME280;29352;48.708;9.290;2022-12-07T01:44:20;97891.09;;;-3.82;85.69
43741;BME280;29352;48.708;9.290;2022-12-07T01:46:58;97892.78;;;-3.92;86.06
43741;BME280;29352;48.708;9.290;2022-12-07T01:49:34;97902.53;;;-4.17;86.49
43741;BME280;29352;48.708;9.290;2022-12-07T01:52:31;97899.94;;;-4.06;86.36
43741;BME280;29352;48.708;9.290;2022-12-07T01:55:04;97901.72;;;-4.17;87.01
43741;BME280;29352;48.708;9.290;2022-12-07T01:57:39;97893.66;;;-4.14;86.51
43741;BME280;29352;48.708;9.290;2022-12-07T02:00:12;97902.41;;;-4.15;86.42
43741;BME280;29352;48.708;9.290;2022-12-07T02:03:09;97898.28;;;-4.07;86.01
43741;BME280;29352;48.708;9.290;2022-12-07T02:05:41;97892.13;;;-4.17;86.23
43741;BME280;29352;48.708;9.290;2022-12-07T02:08:10;97895.34;;;-4.36;86.74
43741;BME280;29352;48.708;9.290;2022-12-07T02:10:37;97903.19;;;-4.47;87.21
43741;BME280;29352;48.708;9.290;2022-12-07T02:13:08;97899.94;;;-4.17;86.29
43741;BME280;29352;48.708;9.290;2022-12-07T02:21:51;97899.13;;;-4.17;86.35
43741;BME280;29352;48.708;9.290;2022-12-07T02:24:53;97896.75;;;-4.20;86.70
43741;BME280;29352;48.708;9.290;2022-12-07T02:27:46;97887.44;;;-4.34;86.51
43741;BME280;29352;48.708;9.290;2022-12-07T02:30:20;97889.66;;;-4.30;86.69
43741;BME280;29352;48.708;9.290;2022-12-07T02:38:25;97886.78;;;-4.15;86.02
43741;BME280;29352;48.708;9.290;2022-12-07T02:41:01;97880.91;;;-4.29;85.92
43741;BME280;29352;48.708;9.290;2022-12-07T02:43:41;97886.41;;;-3.99;85.54
43741;BME280;29352;48.708;9.290;2022-12-07T02:46:16;97882.69;;;-3.86;84.44
43741;BME280;29352;48.708;9.290;2022-12-07T02:48:46;97890.53;;;-4.08;85.28
43741;BME280;29352;48.708;9.290;2022-12-07T02:51:13;97885.47;;;-4.10;84.72
43741;BME280;29352;48.708;9.290;2022-12-07T02:53:41;97883.31;;;-4.05;84.13
43741;BME280;29352;48.708;9.290;2022-12-07T03:08:21;97878.91;;;-3.93;83.57
43741;BME280;29352;48.708;9.290;2022-12-07T03:11:04;97870.56;;;-3.54;82.90
43741;BME280;29352;48.708;9.290;2022-12-07T03:14:23;97863.41;;;-3.73;82.41
43741;BME280;29352;48.708;9.290;2022-12-07T03:17:06;97862.66;;;-3.64;81.88
43741;BME280;29352;48.708;9.290;2022-12-07T03:19:40;97855.78;;;-3.86;82.59
43741;BME280;29352;48.708;9.290;2022-12-07T03:22:12;97862.59;;;-3.53;81.98
43741;BME280;29352;48.708;9.290;2022-12-07T03:24:45;97863.53;;;-3.75;82.36
43741;BME280;29352;48.708;9.290;2022-12-07T03:27:39;97866.88;;;-4.05;83.30
43741;BME280;29352;48.708;9.290;2022-12-07T03:30:17;97862.38;;;-4.14;84.44
43741;BME280;29352;48.708;9.290;2022-12-07T03:32:59;97868.03;;;-3.98;83.46
43741;BME280;29352;48.708;9.290;2022-12-07T03:35:48;97860.53;;;-3.91;82.55
43741;BME280;29352;48.708;9.290;2022-12-07T03:38:48;97866.56;;;-3.91;82.68
43741;BME280;29352;48.708;9.290;2022-12-07T03:41:25;97856.66;;;-3.97;82.85
43741;BME280;29352;48.708;9.290;2022-12-07T03:43:55;97849.97;;;-3.90;82.91
43741;BME280;29352;48.708;9.290;2022-12-07T03:46:43;97852.63;;;-4.01;83.32
43741;BME280;29352;48.708;9.290;2022-12-07T03:52:34;97854.50;;;-3.92;83.30
43741;BME280;29352;48.708;9.290;2022-12-07T03:57:52;97861.88;;;-4.08;83.67
43741;BME280;29352;48.708;9.290;2022-12-07T04:00:22;97855.84;;;-3.76;82.94
43741;BME280;29352;48.708;9.290;2022-12-07T04:02:51;97856.59;;;-3.86;82.51
43741;BME280;29352;48.708;9.290;2022-12-07T04:05:18;97851.50;;;-3.87;82.42
43741;BME280;29352;48.708;9.290;2022-12-07T04:07:44;97848.59;;;-3.94;83.17
43741;BME280;29352;48.708;9.290;2022-12-07T04:10:10;97845.69;;;-3.91;83.38
43741;BME280;29352;48.708;9.290;2022-12-07T04:12:36;97854.06;;;-3.97;83.34
43741;BME280;29352;48.708;9.290;2022-12-07T04:15:03;97852.78;;;-4.14;84.06
43741;BME280;29352;48.708;9.290;2022-12-07T04:17:29;97841.63;;;-4.05;83.93
43741;BME280;29352;48.708;9.290;2022-12-07T04:19:55;97846.34;;;-3.98;83.93
43741;BME280;29352;48.708;9.290;2022-12-07T04:22:20;97842.22;;;-4.12;83.27
43741;BME280;29352;48.708;9.290;2022-12-07T04:24:46;97835.06;;;-4.31;83.88
43741;BME280;29352;48.708;9.290;2022-12-07T04:27:11;97843.56;;;-4.29;84.18
43741;BME280;29352;48.708;9.290;2022-12-07T04:29:37;97843.00;;;-4.33;84.45
43741;BME280;29352;48.708;9.290;2022-12-07T04:32:02;97849.59;;;-4.17;83.85
43741;BME280;29352;48.708;9.290;2022-12-07T04:34:28;97847.38;;;-4.33;84.60
43741;BME280;29352;48.708;9.290;2022-12-07T04:36:54;97842.25;;;-4.23;84.78
43741;BME280;29352;48.708;9.290;2022-12-07T04:39:28;97833.09;;;-4.07;84.28
43741;BME280;29352;48.708;9.290;2022-12-07T04:41:56;97830.28;;;-3.83;82.08
43741;BME280;29352;48.708;9.290;2022-12-07T04:44:24;97828.03;;;-4.19;83.59
43741;BME280;29352;48.708;9.290;2022-12-07T04:46:52;97821.94;;;-4.41;84.68
43741;BME280;29352;48.708;9.290;2022-12-07T04:49:18;97826.72;;;-4.57;84.91
43741;BME280;29352;48.708;9.290;2022-12-07T04:51:45;97821.16;;;-4.20;83.65
43741;BME280;29352;48.708;9.290;2022-12-07T04:54:12;97822.44;;;-3.83;81.67
43741;BME280;29352;48.708;9.290;2022-12-07T04:56:39;97820.19;;;-3.66;81.55
43741;BME280;29352;48.708;9.290;2022-12-07T04:59:05;97824.81;;;-3.79;81.17
43741;BME280;29352;48.708;9.290;2022-12-07T05:01:32;97830.72;;;-4.53;82.55
43741;BME280;29352;48.708;9.290;2022-12-07T05:03:58;97816.91;;;-3.68;80.83
43741;BME280;29352;48.708;9.290;2022-12-07T05:06:24;97828.75;;;-4.61;84.31
43741;BME280;29352;48.708;9.290;2022-12-07T05:08:50;97830.38;;;-4.48;83.87
43741;BME280;29352;48.708;9.290;2022-12-07T05:11:16;97821.53;;;-4.68;83.75
43741;BME280;29352;48.708;9.290;2022-12-07T05:14:02;97816.13;;;-5.55;86.51
43741;BME280;29352;48.708;9.290;2022-12-07T05:16:29;97819.44;;;-4.86;84.42
43741;BME280;29352;48.708;9.290;2022-12-07T05:18:54;97817.69;;;-4.96;86.12
43741;BME280;29352;48.708;9.290;2022-12-07T05:21:20;97822.28;;;-4.89;85.34
43741;BME280;29352;48.708;9.290;2022-12-07T05:23:46;97815.56;;;-5.14;85.88
43741;BME280;29352;48.708;9.290;2022-12-07T05:26:11;97811.97;;;-5.58;88.00
43741;BME280;29352;48.708;9.290;2022-12-07T05:28:37;97806.63;;;-4.78;85.47
43741;BME280;29352;48.708;9.290;2022-12-07T05:31:02;97801.47;;;-5.00;85.61
43741;BME280;29352;48.708;9.290;2022-12-07T05:33:28;97812.38;;;-5.29;87.12
43741;BME280;29352;48.708;9.290;2022-12-07T05:35:54;97809.00;;;-5.64;88.00
43741;BME280;29352;48.708;9.290;2022-12-07T05:38:19;97821.22;;;-5.09;87.06
43741;BME280;29352;48.708;9.290;2022-12-07T05:40:44;97817.16;;;-5.69;88.81
43741;BME280;29352;48.708;9.290;2022-12-07T05:43:10;97817.09;;;-5.11;87.44
43741;BME280;29352;48.708;9.290;2022-12-07T05:45:36;97821.72;;;-5.15;86.98
43741;BME280;29352;48.708;9.290;2022-12-07T05:48:02;97815.41;;;-4.79;85.57
43741;BME280;29352;48.708;9.290;2022-12-07T05:50:28;97812.53;;;-4.64;83.69
43741;BME280;29352;48.708;9.290;2022-12-07T05:52:54;97822.50;;;-4.69;84.83
43741;BME280;29352;48.708;9.290;2022-12-07T05:55:19;97827.16;;;-4.41;83.11
43741;BME280;29352;48.708;9.290;2022-12-07T05:57:45;97824.81;;;-4.55;83.35
43741;BME280;29352;48.708;9.290;2022-12-07T06:00:31;97834.59;;;-5.25;85.55
43741;BME280;29352;48.708;9.290;2022-12-07T06:02:57;97835.06;;;-4.86;84.11
43741;BME280;29352;48.708;9.290;2022-12-07T06:05:22;97842.97;;;-4.65;82.24
43741;BME280;29352;48.708;9.290;2022-12-07T06:07:49;97841.19;;;-5.54;83.58
43741;BME280;29352;48.708;9.290;2022-12-07T06:10:14;97840.47;;;-5.56;85.60
43741;BME280;29352;48.708;9.290;2022-12-07T06:12:40;97844.81;;;-5.68;86.48
43741;BME280;29352;48.708;9.290;2022-12-07T06:15:08;97838.44;;;-5.64;87.39
43741;BME280;29352;48.708;9.290;2022-12-07T06:17:35;97835.66;;;-5.50;86.90
43741;BME280;29352;48.708;9.290;2022-12-07T06:20:01;97837.16;;;-5.69;87.05
43741;BME280;29352;48.708;9.290;2022-12-07T06:22:28;97842.34;;;-5.69;86.69
43741;BME280;29352;48.708;9.290;2022-12-07T06:24:53;97851.84;;;-5.46;85.83
43741;BME280;29352;48.708;9.290;2022-12-07T06:27:19;97841.59;;;-5.83;86.88
43741;BME280;29352;48.708;9.290;2022-12-07T06:29:44;97843.47;;;-5.85;87.19
43741;BME280;29352;48.708;9.290;2022-12-07T06:32:09;97854.38;;;-5.80;87.08
43741;BME280;29352;48.708;9.290;2022-12-07T06:34:35;97844.50;;;-5.41;85.74
43741;BME280;29352;48.708;9.290;2022-12-07T06:37:01;97843.47;;;-5.38;85.88
43741;BME280;29352;48.708;9.290;2022-12-07T06:39:28;97851.84;;;-5.46;86.01
43741;BME280;29352;48.708;9.290;2022-12-07T06:41:55;97847.91;;;-5.63;86.56
43741;BME280;29352;48.708;9.290;2022-12-07T06:44:22;97854.22;;;-5.32;85.30
43741;BME280;29352;48.708;9.290;2022-12-07T06:46:49;97847.56;;;-5.47;86.25
43741;BME280;29352;48.708;9.290;2022-12-07T06:49:15;97857.88;;;-5.45;86.94
43741;BME280;29352;48.708;9.290;2022-12-07T06:51:41;97859.38;;;-5.54;87.20
43741;BME280;29352;48.708;9.290;2022-12-07T06:54:11;97851.44;;;-5.64;87.82
43741;BME280;29352;48.708;9.290;2022-12-07T06:56:38;97848.84;;;-5.64;87.59
43741;BME280;29352;48.708;9.290;2022-12-07T06:59:05;97858.41;;;-5.76;88.02
43741;BME280;29352;48.708;9.290;2022-12-07T07:01:33;97860.03;;;-5.75;87.78
43741;BME280;29352;48.708;9.290;2022-12-07T07:03:59;97867.19;;;-5.54;87.96
43741;BME280;29352;48.708;9.290;2022-12-07T07:06:25;97862.59;;;-5.51;87.55
43741;BME280;29352;48.708;9.290;2022-12-07T07:08:51;97873.84;;;-5.39;86.91
43741;BME280;29352;48.708;9.290;2022-12-07T07:11:17;97878.31;;;-5.52;86.60
43741;BME280;29352;48.708;9.290;2022-12-07T07:13:42;97873.69;;;-5.60;87.13
43741;BME280;29352;48.708;9.290;2022-12-07T07:16:08;97870.00;;;-5.57;87.45
43741;BME280;29352;48.708;9.290;2022-12-07T07:18:34;97869.13;;;-4.78;85.96
43741;BME280;29352;48.708;9.290;2022-12-07T07:21:00;97868.53;;;-4.15;81.99
43741;BME280;29352;48.708;9.290;2022-12-07T07:23:26;97875.53;;;-4.59;83.04
43741;BME280;29352;48.708;9.290;2022-12-07T07:25:52;97874.94;;;-4.96;84.73
43741;BME280;29352;48.708;9.290;2022-12-07T07:28:18;97880.97;;;-4.96;83.67
43741;BME280;29352;48.708;9.290;2022-12-07T07:30:44;97877.19;;;-4.92;83.18
43741;BME280;29352;48.708;9.290;2022-12-07T07:33:10;97874.34;;;-4.89;83.19
43741;BME280;29352;48.708;9.290;2022-12-07T07:35:37;97880.28;;;-4.87;83.34
43741;BME280;29352;48.708;9.290;2022-12-07T07:38:04;97887.59;;;-4.92;83.63
43741;BME280;29352;48.708;9.290;2022-12-07T07:40:30;97895.41;;;-5.03;83.95
43741;BME280;29352;48.708;9.290;2022-12-07T07:42:56;97891.63;;;-4.88;84.02
43741;BME280;29352;48.708;9.290;2022-12-07T07:45:25;97881.19;;;-4.65;82.58
43741;BME280;29352;48.708;9.290;2022-12-07T07:47:52;97885.72;;;-4.90;83.39
43741;BME280;29352;48.708;9.290;2022-12-07T07:50:18;97888.53;;;-4.70;82.93
43741;BME280;29352;48.708;9.290;2022-12-07T07:52:45;97898.47;;;-4.64;83.06
43741;BME280;29352;48.708;9.290;2022-12-07T07:55:11;97894.09;;;-4.53;83.38
43741;BME280;29352;48.708;9.290;2022-12-07T07:57:39;97891.38;;;-4.51;82.79
43741;BME280;29352;48.708;9.290;2022-12-07T08:00:12;97888.03;;;-4.53;83.40
43741;BME280;29352;48.708;9.290;2022-12-07T08:02:40;97891.59;;;-4.54;83.65
43741;BME280;29352;48.708;9.290;2022-12-07T08:05:08;97887.72;;;-4.71;83.40
43741;BME280;29352;48.708;9.290;2022-12-07T08:07:33;97888.88;;;-4.53;83.73
43741;BME280;29352;48.708;9.290;2022-12-07T08:09:59;97889.47;;;-4.49;83.37
43741;BME280;29352;48.708;9.290;2022-12-07T08:12:24;97894.34;;;-4.56;83.34
43741;BME280;29352;48.708;9.290;2022-12-07T08:14:50;97897.88;;;-4.57;83.26
43741;BME280;29352;48.708;9.290;2022-12-07T08:17:15;97893.22;;;-4.31;82.70
43741;BME280;29352;48.708;9.290;2022-12-07T08:19:40;97888.03;;;-4.42;82.72
43741;BME280;29352;48.708;9.290;2022-12-07T08:22:06;97897.63;;;-4.42;83.55
43741;BME280;29352;48.708;9.290;2022-12-07T08:24:35;97897.53;;;-4.52;83.41
43741;BME280;29352;48.708;9.290;2022-12-07T08:27:01;97903.88;;;-4.34;82.84
43741;BME280;29352;48.708;9.290;2022-12-07T08:29:26;97897.75;;;-3.89;81.18
43741;BME280;29352;48.708;9.290;2022-12-07T08:31:52;97901.25;;;-3.79;81.35
43741;BME280;29352;48.708;9.290;2022-12-07T08:34:18;97900.56;;;-3.81;81.18
43741;BME280;29352;48.708;9.290;2022-12-07T08:36:43;97900.53;;;-4.13;82.46
43741;BME280;29352;48.708;9.290;2022-12-07T08:39:09;97899.66;;;-3.70;81.60
43741;BME280;29352;48.708;9.290;2022-12-07T08:41:34;97901.13;;;-3.77;80.73
43741;BME280;29352;48.708;9.290;2022-12-07T08:44:00;97898.28;;;-4.29;81.49
43741;BME280;29352;48.708;9.290;2022-12-07T08:46:53;97900.75;;;-3.94;81.93
43741;BME280;29352;48.708;9.290;2022-12-07T08:49:32;97897.41;;;-3.43;78.98
43741;BME280;29352;48.708;9.290;2022-12-07T08:52:04;97910.50;;;-3.75;81.10
43741;BME280;29352;48.708;9.290;2022-12-07T08:54:34;97907.97;;;-3.65;81.24
43741;BME280;29352;48.708;9.290;2022-12-07T08:57:04;97907.69;;;-3.83;80.92
43741;BME280;29352;48.708;9.290;2022-12-07T08:59:34;97905.81;;;-3.92;81.25
43741;BME280;29352;48.708;9.290;2022-12-07T09:02:02;97901.94;;;-4.09;81.27
43741;BME280;29352;48.708;9.290;2022-12-07T09:04:28;97905.78;;;-3.81;80.24
43741;BME280;29352;48.708;9.290;2022-12-07T09:06:55;97901.94;;;-3.45;79.62
43741;BME280;29352;48.708;9.290;2022-12-07T09:09:21;97906.44;;;-3.47;78.76
43741;BME280;29352;48.708;9.290;2022-12-07T09:11:47;97899.94;;;-3.52;78.77
43741;BME280;29352;48.708;9.290;2022-12-07T09:14:12;97891.50;;;-3.45;78.63
43741;BME280;29352;48.708;9.290;2022-12-07T09:16:39;97896.75;;;-3.14;77.93
43741;BME280;29352;48.708;9.290;2022-12-07T09:19:05;97895.28;;;-3.07;77.76
43741;BME280;29352;48.708;9.290;2022-12-07T09:21:30;97895.22;;;-3.17;78.19
43741;BME280;29352;48.708;9.290;2022-12-07T09:23:56;97895.59;;;-3.21;77.32
43741;BME280;29352;48.708;9.290;2022-12-07T09:26:22;97902.28;;;-3.07;77.97
43741;BME280;29352;48.708;9.290;2022-12-07T09:28:47;97897.38;;;-3.22;77.69
43741;BME280;29352;48.708;9.290;2022-12-07T09:31:13;97911.63;;;-3.05;76.69
43741;BME280;29352;48.708;9.290;2022-12-07T09:33:38;97906.41;;;-2.74;76.33
43741;BME280;29352;48.708;9.290;2022-12-07T09:36:04;97892.84;;;-2.99;74.92
43741;BME280;29352;48.708;9.290;2022-12-07T09:38:30;97891.59;;;-2.04;71.99
43741;BME280;29352;48.708;9.290;2022-12-07T09:40:57;97890.28;;;-2.39;72.03
43741;BME280;29352;48.708;9.290;2022-12-07T09:43:30;97882.56;;;-1.61;70.96
43741;BME280;29352;48.708;9.290;2022-12-07T09:45:56;97883.78;;;-1.46;70.06
43741;BME280;29352;48.708;9.290;2022-12-07T09:48:37;97878.97;;;-1.60;69.68
43741;BME280;29352;48.708;9.290;2022-12-07T09:51:20;97888.94;;;-2.33;70.46
43741;BME280;29352;48.708;9.290;2022-12-07T09:53:48;97875.78;;;-2.03;70.52
43741;BME280;29352;48.708;9.290;2022-12-07T09:56:17;97877.44;;;-2.02;70.55
43741;BME280;29352;48.708;9.290;2022-12-07T09:58:46;97879.91;;;-1.91;70.40
43741;BME280;29352;48.708;9.290;2022-12-07T10:03:55;97870.53;;;-1.74;69.29
43741;BME280;29352;48.708;9.290;2022-12-07T10:06:26;97861.31;;;-1.68;68.67
43741;BME280;29352;48.708;9.290;2022-12-07T10:08:52;97859.69;;;-1.59;68.97
43741;BME280;29352;48.708;9.290;2022-12-07T10:11:18;97858.69;;;-1.68;68.36
43741;BME280;29352;48.708;9.290;2022-12-07T10:13:46;97855.00;;;-1.75;68.71
43741;BME280;29352;48.708;9.290;2022-12-07T10:16:39;97854.84;;;-1.64;68.12
43741;BME280;29352;48.708;9.290;2022-12-07T10:19:25;97850.69;;;-1.76;68.59
43741;BME280;29352;48.708;9.290;2022-12-07T10:24:37;97852.66;;;-1.59;68.43
43741;BME280;29352;48.708;9.290;2022-12-07T10:27:04;97844.66;;;-1.86;68.96
43741;BME280;29352;48.708;9.290;2022-12-07T10:29:37;97845.47;;;-1.47;68.14
43741;BME280;29352;48.708;9.290;2022-12-07T10:32:24;97846.84;;;-1.53;69.14
43741;BME280;29352;48.708;9.290;2022-12-07T10:35:19;97838.25;;;-1.26;68.30
43741;BME280;29352;48.708;9.290;2022-12-07T10:37:51;97843.06;;;-1.31;67.62
43741;BME280;29352;48.708;9.290;2022-12-07T10:40:36;97847.38;;;-1.30;67.97
43741;BME280;29352;48.708;9.290;2022-12-07T11:00:21;97818.16;;;-1.45;68.44
43741;BME280;29352;48.708;9.290;2022-12-07T11:08:22;97815.34;;;-1.61;68.76
43741;BME280;29352;48.708;9.290;2022-12-07T11:11:14;97807.94;;;-1.38;68.82
43741;BME280;29352;48.708;9.290;2022-12-07T11:19:23;97804.47;;;-1.85;68.68
43741;BME280;29352;48.708;9.290;2022-12-07T11:22:03;97801.84;;;-1.76;69.29
43741;BME280;29352;48.708;9.290;2022-12-07T11:27:44;97796.72;;;-1.77;68.47
43741;BME280;29352;48.708;9.290;2022-12-07T11:30:27;97792.03;;;-1.83;69.09
43741;BME280;29352;48.708;9.290;2022-12-07T11:33:15;97792.84;;;-1.44;69.09
43741;BME280;29352;48.708;9.290;2022-12-07T11:38:38;97786.13;;;-1.76;69.25
43741;BME280;29352;48.708;9.290;2022-12-07T11:41:22;97782.66;;;-1.76;68.51
43741;BME280;29352;48.708;9.290;2022-12-07T11:43:57;97782.78;;;-1.49;69.04
43741;BME280;29352;48.708;9.290;2022-12-07T11:46:44;97779.34;;;-1.49;68.05
43741;BME280;29352;48.708;9.290;2022-12-07T11:51:54;97773.81;;;-1.46;68.04
43741;BME280;29352;48.708;9.290;2022-12-07T11:54:40;97761.78;;;-1.86;69.38
43741;BME280;29352;48.708;9.290;2022-12-07T11:57:41;97755.28;;;-1.72;69.16
43741;BME280;29352;48.708;9.290;2022-12-07T12:00:16;97754.59;;;-1.74;68.70
43741;BME280;29352;48.708;9.290;2022-12-07T12:02:51;97754.66;;;-2.13;69.26
43741;BME280;29352;48.708;9.290;2022-12-07T12:05:25;97752.81;;;-1.93;68.95
43741;BME280;29352;48.708;9.290;2022-12-07T12:08:02;97754.97;;;-1.59;68.63
43741;BME280;29352;48.708;9.290;2022-12-07T12:10:55;97755.34;;;-1.45;68.17
43741;BME280;29352;48.708;9.290;2022-12-07T12:20:00;97741.75;;;-1.68;68.95
43741;BME280;29352;48.708;9.290;2022-12-07T12:22:39;97749.88;;;-1.71;68.42
43741;BME280;29352;48.708;9.290;2022-12-07T12:28:02;97743.59;;;-1.87;69.35
43741;BME280;29352;48.708;9.290;2022-12-07T12:30:39;97738.34;;;-1.87;69.43
43741;BME280;29352;48.708;9.290;2022-12-07T12:33:19;97740.88;;;-1.96;70.01
43741;BME280;29352;48.708;9.290;2022-12-07T12:36:22;97731.03;;;-1.74;69.90
43741;BME280;29352;48.708;9.290;2022-12-07T12:46:46;97734.34;;;-1.72;69.46
43741;BME280;29352;48.708;9.290;2022-12-07T12:57:36;97739.09;;;-2.24;75.21
43741;BME280;29352;48.708;9.290;2022-12-07T13:00:21;97737.69;;;-1.90;74.59
43741;BME280;29352;48.708;9.290;2022-12-07T13:02:56;97728.34;;;-2.11;74.76
43741;BME280;29352;48.708;9.290;2022-12-07T13:05:30;97718.84;;;-2.03;74.35
43741;BME280;29352;48.708;9.290;2022-12-07T13:08:15;97719.78;;;-2.04;75.11
43741;BME280;29352;48.708;9.290;2022-12-07T13:10:47;97724.91;;;-2.12;76.49
43741;BME280;29352;48.708;9.290;2022-12-07T13:15:49;97707.16;;;-2.18;76.65
43741;BME280;29352;48.708;9.290;2022-12-07T13:24:00;97702.34;;;-2.23;76.82
43741;BME280;29352;48.708;9.290;2022-12-07T13:29:16;97702.63;;;-2.35;77.86
43741;BME280;29352;48.708;9.290;2022-12-07T13:31:54;97702.50;;;-2.53;77.97
43741;BME280;29352;48.708;9.290;2022-12-07T13:34:37;97707.63;;;-2.52;78.59
43741;BME280;29352;48.708;9.290;2022-12-07T13:37:27;97701.41;;;-2.51;79.26
43741;BME280;29352;48.708;9.290;2022-12-07T13:39:59;97702.09;;;-2.68;79.31
43741;BME280;29352;48.708;9.290;2022-12-07T13:42:40;97698.81;;;-2.51;79.11
43741;BME280;29352;48.708;9.290;2022-12-07T13:45:41;97699.75;;;-2.42;79.53
43741;BME280;29352;48.708;9.290;2022-12-07T13:48:32;97695.50;;;-2.43;78.37
43741;BME280;29352;48.708;9.290;2022-12-07T13:51:17;97700.88;;;-2.45;78.74
43741;BME280;29352;48.708;9.290;2022-12-07T13:54:09;97697.69;;;-2.29;79.20
43741;BME280;29352;48.708;9.290;2022-12-07T13:56:37;97696.34;;;-2.62;79.25
43741;BME280;29352;48.708;9.290;2022-12-07T13:59:25;97700.44;;;-2.50;78.17
43741;BME280;29352;48.708;9.290;2022-12-07T14:01:53;97698.66;;;-2.40;78.19
43741;BME280;29352;48.708;9.290;2022-12-07T14:07:00;97694.13;;;-2.47;78.17
43741;BME280;29352;48.708;9.290;2022-12-07T14:10:00;97698.66;;;-2.40;77.11
43741;BME280;29352;48.708;9.290;2022-12-07T14:12:30;97692.72;;;-2.32;77.10
43741;BME280;29352;48.708;9.290;2022-12-07T14:14:58;97699.09;;;-2.44;77.30
43741;BME280;29352;48.708;9.290;2022-12-07T14:17:26;97696.44;;;-2.25;77.13
43741;BME280;29352;48.708;9.290;2022-12-07T14:19:57;97691.75;;;-2.21;77.41
43741;BME280;29352;48.708;9.290;2022-12-07T14:22:31;97688.19;;;-2.20;76.46
43741;BME280;29352;48.708;9.290;2022-12-07T14:25:20;97691.44;;;-1.99;75.96
43741;BME280;29352;48.708;9.290;2022-12-07T14:30:23;97683.41;;;-2.54;77.35
43741;BME280;29352;48.708;9.290;2022-12-07T14:32:58;97682.16;;;-2.30;77.10
43741;BME280;29352;48.708;9.290;2022-12-07T14:35:29;97685.28;;;-2.17;76.22
43741;BME280;29352;48.708;9.290;2022-12-07T14:37:56;97681.72;;;-2.26;76.35
43741;BME280;29352;48.708;9.290;2022-12-07T14:40:24;97683.22;;;-2.14;75.76
43741;BME280;29352;48.708;9.290;2022-12-07T14:43:03;97689.97;;;-2.21;75.75
43741;BME280;29352;48.708;9.290;2022-12-07T14:45:32;97688.59;;;-2.15;76.35
43741;BME280;29352;48.708;9.290;2022-12-07T14:47:58;97695.66;;;-2.45;76.92
43741;BME280;29352;48.708;9.290;2022-12-07T14:50:23;97695.13;;;-1.82;76.27
43741;BME280;29352;48.708;9.290;2022-12-07T14:53:00;97690.81;;;-2.20;77.24
43741;BME280;29352;48.708;9.290;2022-12-07T14:55:32;97689.09;;;-2.02;76.39
43741;BME280;29352;48.708;9.290;2022-12-07T14:57:58;97688.63;;;-2.34;77.43
43741;BME280;29352;48.708;9.290;2022-12-07T15:00:27;97701.97;;;-2.38;77.17
43741;BME280;29352;48.708;9.290;2022-12-07T15:02:54;97702.78;;;-2.37;77.77
43741;BME280;29352;48.708;9.290;2022-12-07T15:05:20;97690.69;;;-2.48;77.88
43741;BME280;29352;48.708;9.290;2022-12-07T15:07:48;97693.72;;;-2.62;77.42
43741;BME280;29352;48.708;9.290;2022-12-07T15:10:23;97698.53;;;-2.48;77.32
43741;BME280;29352;48.708;9.290;2022-12-07T15:12:59;97693.44;;;-2.69;76.80
43741;BME280;29352;48.708;9.290;2022-12-07T15:15:46;97700.03;;;-2.74;76.90
43741;BME280;29352;48.708;9.290;2022-12-07T15:18:13;97692.22;;;-2.65;76.48